CheckWX is a tool to help pilots better visualize weather data.  It is not intended as a substitute for an official pre-flight weather briefing.

22:50:16 UTC

KRBW METAR
Lowcountry Regional Airport
Walterboro, South Carolina, USA
Current

15 mins ago

KRBW 262235Z AUTO 05006KT 10SM SCT031 13/07 A3015 RMK AO2
Observed
Mar-26 @ 22:35 UTC
Wind
  • 050° at 6 KTS
Visibility
10 SM
Flight Rules
VFR
Cloud Levels
  • Scattered at 3,100' AGL
Temperature
13°C / 55°F
Dewpoint
C / 45°F
Humidity
67%
Altimeter
30.15" Hg
Pressure
1021.02 hPa
Previous

35 mins ago

KRBW 262215Z AUTO 06009KT 10SM CLR 14/07 A3015 RMK AO2
Observed
Mar-26 @ 22:15 UTC
Wind
  • 060° at 9 KTS
Visibility
10 SM
Flight Rules
VFR
Cloud Levels
  • Clear skies
Temperature
14°C / 57°F
Dewpoint
C / 45°F
Humidity
63%
Altimeter
30.15" Hg
Pressure
1021.02 hPa
Previous

55 mins ago

KRBW 262155Z AUTO 05011KT 10SM SCT024 13/07 A3014 RMK AO2
Observed
Mar-26 @ 21:55 UTC
Wind
  • 050° at 11 KTS
Visibility
10 SM
Flight Rules
VFR
Cloud Levels
  • Scattered at 2,400' AGL
Temperature
13°C / 55°F
Dewpoint
C / 45°F
Humidity
67%
Altimeter
30.14" Hg
Pressure
1020.62 hPa